createdAt,value
2022-09-04T00:00:07.412Z,101424.75
2022-09-04T00:05:17.275Z,101431.03
2022-09-04T00:10:28.406Z,101426.41
2022-09-04T00:15:36.617Z,101429.28
2022-09-04T00:20:42.770Z,101430.91
2022-09-04T00:25:56.857Z,101434.91
2022-09-04T00:31:12.371Z,101432.38
2022-09-04T00:36:17.367Z,101434.88
2022-09-04T00:41:27.961Z,101438.38
2022-09-04T00:46:59.072Z,101437.69
2022-09-04T00:52:06.617Z,101445.81
2022-09-04T00:57:48.471Z,101453.03
2022-09-04T01:03:35.200Z,101458.41
2022-09-04T01:08:56.069Z,101462.84
2022-09-04T01:14:08.787Z,101476.41
2022-09-04T01:19:25.035Z,101465.56
2022-09-04T01:24:52.242Z,101464.00
2022-09-04T01:30:03.038Z,101479.38
2022-09-04T01:35:14.986Z,101469.66
2022-09-04T01:40:35.776Z,101473.28
2022-09-04T01:46:02.749Z,101473.19
2022-09-04T01:51:14.761Z,101475.09
2022-09-04T01:56:21.661Z,101478.94
2022-09-04T02:01:33.194Z,101462.00
2022-09-04T02:06:47.522Z,101468.38
2022-09-04T02:11:59.259Z,101465.56
2022-09-04T02:17:10.375Z,101474.69
2022-09-04T02:22:24.500Z,101471.16
2022-09-04T02:27:35.346Z,101475.72
2022-09-04T02:32:44.814Z,101480.03
2022-09-04T02:38:00.842Z,101482.09
2022-09-04T02:43:22.358Z,101477.66
2022-09-04T02:48:33.884Z,101476.13
2022-09-04T02:53:46.194Z,101482.38
2022-09-04T02:59:03.760Z,101478.88
2022-09-04T03:04:15.403Z,101479.84
2022-09-04T03:09:22.256Z,101473.75
2022-09-04T03:14:33.020Z,101477.22
2022-09-04T03:19:45.003Z,101480.72
2022-09-04T03:25:06.603Z,101472.81
2022-09-04T03:30:11.637Z,101471.78
2022-09-04T03:35:23.042Z,101476.94
2022-09-04T03:40:36.442Z,101491.94
2022-09-04T03:45:49.002Z,101494.44
2022-09-04T03:50:58.016Z,101494.28
2022-09-04T03:56:27.696Z,101500.47
2022-09-04T04:01:41.810Z,101502.38
2022-09-04T04:06:52.736Z,101502.53
2022-09-04T04:12:21.279Z,101504.19
2022-09-04T04:17:55.235Z,101506.91
2022-09-04T04:23:27.626Z,101512.47
2022-09-04T04:28:49.496Z,101515.13
2022-09-04T04:34:02.804Z,101519.63
2022-09-04T04:39:19.653Z,101518.69
2022-09-04T04:44:27.058Z,101524.97
2022-09-04T04:49:44.289Z,101529.44
2022-09-04T04:55:00.807Z,101531.16
2022-09-04T05:00:10.555Z,101540.25
2022-09-04T05:05:18.620Z,101547.25
2022-09-04T05:10:30.166Z,101554.31
2022-09-04T05:15:58.182Z,101570.22
2022-09-04T05:21:08.814Z,101581.56
2022-09-04T05:26:21.519Z,101589.44
2022-09-04T05:31:33.723Z,101588.59
2022-09-04T05:36:50.448Z,101605.69
2022-09-04T05:42:09.518Z,101618.19
2022-09-04T05:47:28.633Z,101629.06
2022-09-04T05:52:52.960Z,101630.22
2022-09-04T05:58:08.289Z,101622.34
2022-09-04T06:03:30.227Z,101640.53
2022-09-04T06:08:45.366Z,101636.47
2022-09-04T06:14:01.321Z,101644.50
2022-09-04T06:19:26.073Z,101636.31
2022-09-04T06:24:52.233Z,101643.41
2022-09-04T06:30:07.116Z,101646.91
2022-09-04T06:35:19.665Z,101649.00
2022-09-04T06:40:41.542Z,101655.09
2022-09-04T06:46:02.302Z,101655.84
2022-09-04T06:51:18.122Z,101655.38
2022-09-04T06:56:45.938Z,101668.84
2022-09-04T07:02:00.282Z,101659.59
2022-09-04T07:07:11.536Z,101671.69
2022-09-04T07:12:33.581Z,101678.50
2022-09-04T07:17:42.414Z,101682.25
2022-09-04T07:23:06.307Z,101684.91
2022-09-04T07:28:19.104Z,101683.69
2022-09-04T07:33:32.907Z,101683.16
2022-09-04T07:38:42.130Z,101688.94
2022-09-04T07:43:54.972Z,101699.03
2022-09-04T07:49:04.726Z,101690.94
2022-09-04T07:54:40.079Z,101699.03
2022-09-04T08:00:01.861Z,101701.66
2022-09-04T08:05:22.169Z,101715.16
2022-09-04T08:10:31.904Z,101720.41
2022-09-04T08:15:42.906Z,101720.81
2022-09-04T08:20:55.579Z,101728.41
2022-09-04T08:26:09.658Z,101738.03
2022-09-04T08:31:21.042Z,101734.97
2022-09-04T08:36:33.178Z,101742.47
2022-09-04T08:42:14.747Z,101739.16
2022-09-04T08:47:47.500Z,101732.31
2022-09-04T08:53:29.703Z,101734.44
2022-09-04T08:59:09.642Z,101740.81
2022-09-04T09:04:34.175Z,101744.09
2022-09-04T09:10:09.078Z,101733.44
2022-09-04T09:15:33.401Z,101742.31
2022-09-04T09:20:47.209Z,101718.69
2022-09-04T09:26:01.777Z,101735.78
2022-09-04T09:31:32.246Z,101725.06
2022-09-04T09:36:52.364Z,101731.88
2022-09-04T09:42:38.178Z,101730.81
2022-09-04T09:48:11.646Z,101724.81
2022-09-04T09:53:53.196Z,101730.97
2022-09-04T09:59:34.486Z,101727.53
2022-09-04T10:04:57.514Z,101727.38
2022-09-04T10:10:23.513Z,101720.78
2022-09-04T10:15:45.255Z,101722.38
2022-09-04T10:21:18.739Z,101722.47
2022-09-04T10:26:51.963Z,101724.50
2022-09-04T10:32:38.901Z,101721.44
2022-09-04T10:38:15.284Z,101727.69
2022-09-04T10:43:39.055Z,101712.63
2022-09-04T10:48:56.688Z,101726.84
2022-09-04T10:54:19.940Z,101730.34
2022-09-04T10:59:57.012Z,101724.50
2022-09-04T11:05:31.473Z,101725.19
2022-09-04T11:10:46.122Z,101731.44
2022-09-04T11:16:10.344Z,101724.59
2022-09-04T11:21:42.834Z,101714.72
2022-09-04T11:27:10.016Z,101709.97
2022-09-04T11:32:26.020Z,101722.34
2022-09-04T11:37:55.773Z,101725.34
2022-09-04T11:43:14.848Z,101717.16
2022-09-04T11:48:43.928Z,101719.19
2022-09-04T11:54:08.447Z,101710.63
2022-09-04T11:59:40.014Z,101687.91
2022-09-04T12:05:00.013Z,101693.88
2022-09-04T12:10:29.609Z,101698.53
2022-09-04T12:16:11.503Z,101688.00
2022-09-04T12:21:36.137Z,101679.16
2022-09-04T12:27:02.207Z,101684.88
2022-09-04T12:32:43.613Z,101695.19
2022-09-04T12:38:08.519Z,101691.41
2022-09-04T12:43:22.864Z,101689.56
2022-09-04T12:48:35.827Z,101676.69
2022-09-04T12:54:03.775Z,101673.09
2022-09-04T12:59:22.887Z,101694.13
2022-09-04T13:04:33.613Z,101687.50
2022-09-04T13:09:53.311Z,101684.38
2022-09-04T13:15:20.564Z,101690.13
2022-09-04T13:20:32.062Z,101682.88
2022-09-04T13:25:48.752Z,101689.88
2022-09-04T13:30:56.535Z,101686.94
2022-09-04T13:36:17.848Z,101692.34
2022-09-04T13:41:45.956Z,101691.19
2022-09-04T13:46:53.339Z,101704.44
2022-09-04T13:52:05.675Z,101709.06
2022-09-04T13:57:15.053Z,101709.13
2022-09-04T14:02:20.911Z,101706.78
2022-09-04T14:07:26.795Z,101704.25
2022-09-04T14:12:54.803Z,101713.97
2022-09-04T14:18:08.583Z,101701.53
2022-09-04T14:23:22.634Z,101703.94
2022-09-04T14:28:31.864Z,101708.94
2022-09-04T14:33:44.428Z,101715.72
2022-09-04T14:39:05.301Z,101717.47
2022-09-04T14:44:20.779Z,101710.84
2022-09-04T14:49:25.779Z,101707.25
2022-09-04T14:54:33.427Z,101709.66
2022-09-04T14:59:38.844Z,101717.66
2022-09-04T15:04:45.895Z,101707.66
2022-09-04T15:09:50.943Z,101707.72
2022-09-04T15:15:03.655Z,101702.88
2022-09-04T15:20:11.940Z,101709.97
2022-09-04T15:25:58.362Z,101702.69
2022-09-04T15:31:14.709Z,101700.34
2022-09-04T15:36:22.558Z,101713.88
2022-09-04T15:41:35.726Z,101715.81
2022-09-04T15:46:45.639Z,101719.16
2022-09-04T15:51:52.479Z,101719.41
2022-09-04T15:57:04.362Z,101720.69
2022-09-04T16:02:22.408Z,101726.75
2022-09-04T16:07:33.893Z,101723.16
2022-09-04T16:12:41.567Z,101733.47
2022-09-04T16:17:50.678Z,101736.53
2022-09-04T16:22:55.710Z,101738.97
2022-09-04T16:28:02.768Z,101744.72
2022-09-04T16:33:20.476Z,101747.47
2022-09-04T16:38:34.287Z,101745.84
2022-09-04T16:43:37.670Z,101747.31
2022-09-04T16:48:47.405Z,101752.88
2022-09-04T16:53:52.914Z,101765.91
2022-09-04T16:59:09.470Z,101770.63
2022-09-04T17:04:27.248Z,101773.69
2022-09-04T17:09:42.948Z,101762.91
2022-09-04T17:14:52.300Z,101779.31
2022-09-04T17:20:06.551Z,101779.84
2022-09-04T17:29:01.821Z,101775.69
2022-09-04T17:30:48.179Z,101784.19
2022-09-04T17:40:37.076Z,101780.75
2022-09-04T17:41:40.761Z,101790.13
2022-09-04T17:46:57.819Z,101793.25
2022-09-04T17:52:03.047Z,101805.09
2022-09-04T17:57:11.876Z,101811.81
2022-09-04T18:02:19.553Z,101811.78
2022-09-04T18:08:06.942Z,101831.31
2022-09-04T18:12:58.582Z,101828.22
2022-09-04T18:18:11.312Z,101831.03
2022-09-04T18:23:51.523Z,101835.44
2022-09-04T18:29:04.141Z,101838.47
2022-09-04T18:37:25.323Z,101846.09
2022-09-04T18:40:05.069Z,101856.59
2022-09-04T18:50:24.179Z,101864.00
2022-09-04T18:56:06.722Z,101860.44
2022-09-04T19:01:29.206Z,101865.41
2022-09-04T19:06:36.567Z,101865.75
2022-09-04T19:11:45.219Z,101862.38
2022-09-04T19:16:52.242Z,101862.38
2022-09-04T19:22:01.670Z,101868.09
2022-09-04T19:27:28.183Z,101870.78
2022-09-04T19:32:37.371Z,101866.22
2022-09-04T19:40:13.771Z,101875.22
2022-09-04T19:46:14.379Z,101874.06
2022-09-04T19:50:26.048Z,101874.31
2022-09-04T19:54:14.643Z,101875.13
2022-09-04T19:59:22.991Z,101877.13
2022-09-04T20:04:34.664Z,101891.53
2022-09-04T20:09:46.619Z,101879.09
2022-09-04T20:14:54.996Z,101890.78
2022-09-04T20:20:01.313Z,101892.84
2022-09-04T20:25:26.444Z,101899.19
2022-09-04T20:30:30.331Z,101898.25
2022-09-04T20:35:38.093Z,101895.44
2022-09-04T20:40:46.273Z,101898.13
2022-09-04T20:50:25.876Z,101899.78
2022-09-04T20:53:05.797Z,101908.13
2022-09-04T20:59:21.015Z,101902.91
2022-09-04T21:03:22.395Z,101911.72
2022-09-04T21:08:06.314Z,101919.03
2022-09-04T21:13:17.025Z,101935.38
2022-09-04T21:18:54.948Z,101939.22
2022-09-04T21:24:31.390Z,101945.88
2022-09-04T21:30:05.204Z,101940.56
2022-09-04T21:35:15.697Z,101945.22
2022-09-04T21:40:51.251Z,101945.31
2022-09-04T21:46:13.212Z,101953.38
2022-09-04T21:51:33.966Z,101958.00
2022-09-04T22:02:28.663Z,101952.75
2022-09-04T22:03:01.992Z,101953.38
2022-09-04T22:13:27.391Z,101956.25
2022-09-04T22:13:51.068Z,101965.28
2022-09-04T22:19:30.140Z,101965.50
2022-09-04T22:25:06.012Z,101969.38
2022-09-04T22:30:10.125Z,101962.28
2022-09-04T22:36:02.731Z,101962.50
2022-09-04T22:41:33.558Z,101957.06
2022-09-04T22:47:05.327Z,101956.81
2022-09-04T22:58:25.652Z,101955.88
2022-09-04T23:03:45.849Z,101968.34
2022-09-04T23:13:49.102Z,101958.47
2022-09-04T23:14:47.959Z,101962.91
2022-09-04T23:26:36.460Z,101963.63
2022-09-04T23:26:57.258Z,101977.78
2022-09-04T23:31:29.157Z,101971.50
2022-09-04T23:37:13.864Z,101969.44
2022-09-04T23:42:39.022Z,101968.44
2022-09-04T23:48:17.469Z,101971.00
2022-09-04T23:53:29.761Z,101972.72
2022-09-04T23:58:49.399Z,101979.56
